sensor_id;sensor_type;location;lat;lon;timestamp;pressure;altitude;pressure_sealevel;temperature;humidity
7832;BME280;3961;42.058;25.586;2023-01-15T00:00:13;62944.47;;;6.52;100.00
7832;BME280;3961;42.058;25.586;2023-01-15T00:02:38;62944.25;;;6.49;100.00
7832;BME280;3961;42.058;25.586;2023-01-15T00:05:04;62948.41;;;6.60;100.00
7832;BME280;3961;42.058;25.586;2023-01-15T00:07:30;62966.56;;;6.73;100.00
7832;BME280;3961;42.058;25.586;2023-01-15T00:09:55;62966.56;;;6.73;100.00
7832;BME280;3961;42.058;25.586;2023-01-15T00:12:21;62953.09;;;6.59;100.00
7832;BME280;3961;42.058;25.586;2023-01-15T00:14:46;62956.22;;;6.64;100.00
7832;BME280;3961;42.058;25.586;2023-01-15T00:17:12;62969.22;;;6.73;100.00
7832;BME280;3961;42.058;25.586;2023-01-15T00:19:38;62963.13;;;6.70;100.00
7832;BME280;3961;42.058;25.586;2023-01-15T00:22:03;62931.41;;;6.47;100.00
7832;BME280;3961;42.058;25.586;2023-01-15T00:24:29;62947.34;;;6.54;100.00
7832;BME280;3961;42.058;25.586;2023-01-15T00:27:12;62938.06;;;6.51;100.00
7832;BME280;3961;42.058;25.586;2023-01-15T00:29:57;62943.91;;;6.51;100.00
7832;BME280;3961;42.058;25.586;2023-01-15T00:32:22;62942.41;;;6.52;100.00
7832;BME280;3961;42.058;25.586;2023-01-15T00:34:51;62953.09;;;6.59;100.00
7832;BME280;3961;42.058;25.586;2023-01-15T00:37:16;62962.31;;;6.67;100.00
7832;BME280;3961;42.058;25.586;2023-01-15T00:39:42;62969.22;;;6.73;100.00
7832;BME280;3961;42.058;25.586;2023-01-15T00:42:08;62966.00;;;6.73;100.00
7832;BME280;3961;42.058;25.586;2023-01-15T00:44:33;62959.09;;;6.67;100.00
7832;BME280;3961;42.058;25.586;2023-01-15T00:46:59;62942.41;;;6.52;100.00
7832;BME280;3961;42.058;25.586;2023-01-15T00:49:24;62940.13;;;6.50;100.00
7832;BME280;3961;42.058;25.586;2023-01-15T00:51:50;62959.44;;;6.65;100.00
7832;BME280;3961;42.058;25.586;2023-01-15T00:54:16;62967.72;;;6.74;100.00
7832;BME280;3961;42.058;25.586;2023-01-15T00:56:42;62963.13;;;6.70;100.00
7832;BME280;3961;42.058;25.586;2023-01-15T00:59:07;62960.81;;;6.68;100.00
7832;BME280;3961;42.058;25.586;2023-01-15T01:01:33;62961.16;;;6.66;100.00
7832;BME280;3961;42.058;25.586;2023-01-15T01:03:59;62953.69;;;6.60;100.00
7832;BME280;3961;42.058;25.586;2023-01-15T01:06:25;62956.78;;;6.65;100.00
7832;BME280;3961;42.058;25.586;2023-01-15T01:08:50;62962.66;;;6.65;100.00
7832;BME280;3961;42.058;25.586;2023-01-15T01:11:19;62950.47;;;6.59;100.00
7832;BME280;3961;42.058;25.586;2023-01-15T01:13:45;62961.16;;;6.66;100.00
7832;BME280;3961;42.058;25.586;2023-01-15T01:16:36;62958.53;;;6.66;100.00
7832;BME280;3961;42.058;25.586;2023-01-15T01:19:11;62959.34;;;6.69;100.00
7832;BME280;3961;42.058;25.586;2023-01-15T01:21:38;62962.22;;;6.72;100.00
7832;BME280;3961;42.058;25.586;2023-01-15T01:24:04;62970.28;;;6.79;100.00
7832;BME280;3961;42.058;25.586;2023-01-15T01:26:31;62977.16;;;6.85;100.00
7832;BME280;3961;42.058;25.586;2023-01-15T01:28:56;62976.34;;;6.82;100.00
7832;BME280;3961;42.058;25.586;2023-01-15T01:31:22;62984.63;;;6.92;100.00
7832;BME280;3961;42.058;25.586;2023-01-15T01:33:54;62972.31;;;6.79;100.00
7832;BME280;3961;42.058;25.586;2023-01-15T01:36:20;62964.28;;;6.71;100.00
7832;BME280;3961;42.058;25.586;2023-01-15T01:38:49;62972.31;;;6.79;100.00
7832;BME280;3961;42.058;25.586;2023-01-15T01:41:16;62966.00;;;6.73;100.00
7832;BME280;3961;42.058;25.586;2023-01-15T01:44:01;62971.19;;;6.78;100.00
7832;BME280;3961;42.058;25.586;2023-01-15T01:46:29;62968.06;;;6.72;100.00
7832;BME280;3961;42.058;25.586;2023-01-15T01:49:07;62957.38;;;6.65;100.00
7832;BME280;3961;42.058;25.586;2023-01-15T01:51:37;62958.28;;;6.64;100.00
7832;BME280;3961;42.058;25.586;2023-01-15T01:54:05;62960.25;;;6.68;100.00
7832;BME280;3961;42.058;25.586;2023-01-15T01:56:34;62966.91;;;6.71;100.00
7832;BME280;3961;42.058;25.586;2023-01-15T01:59:02;62966.00;;;6.73;100.00
7832;BME280;3961;42.058;25.586;2023-01-15T02:01:28;62962.31;;;6.67;100.00
7832;BME280;3961;42.058;25.586;2023-01-15T02:03:54;62961.72;;;6.67;100.00
7832;BME280;3961;42.058;25.586;2023-01-15T02:06:21;62973.25;;;6.77;100.00
7832;BME280;3961;42.058;25.586;2023-01-15T02:08:48;62961.41;;;6.69;100.00
7832;BME280;3961;42.058;25.586;2023-01-15T02:11:16;62966.25;;;6.76;100.00
7832;BME280;3961;42.058;25.586;2023-01-15T02:13:52;62989.00;;;6.93;100.00
7832;BME280;3961;42.058;25.586;2023-01-15T02:16:26;62975.22;;;6.81;100.00
7832;BME280;3961;42.058;25.586;2023-01-15T02:27:43;62989.31;;;6.91;100.00
7832;BME280;3961;42.058;25.586;2023-01-15T02:30:41;62976.69;;;6.80;100.00
7832;BME280;3961;42.058;25.586;2023-01-15T02:33:12;62979.44;;;6.87;100.00
7832;BME280;3961;42.058;25.586;2023-01-15T02:38:07;62963.38;;;6.73;100.00
7832;BME280;3961;42.058;25.586;2023-01-15T02:40:36;62959.34;;;6.69;100.00
7832;BME280;3961;42.058;25.586;2023-01-15T02:43:02;62963.47;;;6.68;100.00
7832;BME280;3961;42.058;25.586;2023-01-15T02:45:33;62966.66;;;6.69;100.00
7832;BME280;3961;42.058;25.586;2023-01-15T02:48:11;62981.50;;;6.87;100.00
7832;BME280;3961;42.058;25.586;2023-01-15T02:50:41;62978.31;;;6.86;100.00
7832;BME280;3961;42.058;25.586;2023-01-15T02:53:12;62978.41;;;6.82;100.00
7832;BME280;3961;42.058;25.586;2023-01-15T02:55:43;62993.94;;;6.95;100.00
7832;BME280;3961;42.058;25.586;2023-01-15T02:58:13;62997.97;;;6.99;100.00
7832;BME280;3961;42.058;25.586;2023-01-15T03:00:44;62997.63;;;7.01;100.00
7832;BME280;3961;42.058;25.586;2023-01-15T03:03:25;63005.34;;;7.10;100.00
7832;BME280;3961;42.058;25.586;2023-01-15T03:06:16;62985.53;;;6.90;100.00
7832;BME280;3961;42.058;25.586;2023-01-15T03:08:42;62993.34;;;6.95;100.00
7832;BME280;3961;42.058;25.586;2023-01-15T03:11:16;62975.22;;;6.81;100.00
7832;BME280;3961;42.058;25.586;2023-01-15T03:14:05;62980.13;;;6.83;100.00
7832;BME280;3961;42.058;25.586;2023-01-15T03:16:40;62971.50;;;6.76;100.00
7832;BME280;3961;42.058;25.586;2023-01-15T03:22:08;62977.16;;;6.85;100.00
7832;BME280;3961;42.058;25.586;2023-01-15T03:24:45;62992.44;;;6.96;100.00
7832;BME280;3961;42.058;25.586;2023-01-15T03:27:12;62982.41;;;6.85;100.00
7832;BME280;3961;42.058;25.586;2023-01-15T03:29:41;62964.28;;;6.71;100.00
7832;BME280;3961;42.058;25.586;2023-01-15T03:32:08;62974.38;;;6.78;100.00
7832;BME280;3961;42.058;25.586;2023-01-15T03:34:41;62976.34;;;6.82;100.00
7832;BME280;3961;42.058;25.586;2023-01-15T03:37:07;62952.53;;;6.59;100.00
7832;BME280;3961;42.058;25.586;2023-01-15T03:39:33;62970.03;;;6.77;100.00
7832;BME280;3961;42.058;25.586;2023-01-15T03:42:19;62962.56;;;6.70;100.00
7832;BME280;3961;42.058;25.586;2023-01-15T03:53:09;62969.44;;;6.76;100.00
7832;BME280;3961;42.058;25.586;2023-01-15T03:58:46;62963.47;;;6.68;100.00
7832;BME280;3961;42.058;25.586;2023-01-15T04:01:17;62970.03;;;6.77;100.00
7832;BME280;3961;42.058;25.586;2023-01-15T04:03:46;62996.56;;;6.95;100.00
7832;BME280;3961;42.058;25.586;2023-01-15T04:06:14;62990.97;;;6.97;100.00
7832;BME280;3961;42.058;25.586;2023-01-15T04:08:41;62988.19;;;6.90;100.00
7832;BME280;3961;42.058;25.586;2023-01-15T04:11:08;62996.00;;;6.95;100.00
7832;BME280;3961;42.058;25.586;2023-01-15T04:13:34;62995.91;;;6.99;100.00
7832;BME280;3961;42.058;25.586;2023-01-15T04:16:00;62996.47;;;7.00;100.00
7832;BME280;3961;42.058;25.586;2023-01-15T04:18:25;63006.00;;;7.06;100.00
7832;BME280;3961;42.058;25.586;2023-01-15T04:20:51;62992.09;;;6.98;100.00
7832;BME280;3961;42.058;25.586;2023-01-15T04:23:18;62983.91;;;6.84;100.00
7832;BME280;3961;42.058;25.586;2023-01-15T04:25:44;62974.63;;;6.81;100.00
7832;BME280;3961;42.058;25.586;2023-01-15T04:28:09;62960.72;;;6.73;100.00
7832;BME280;3961;42.058;25.586;2023-01-15T04:30:35;62919.44;;;6.32;100.00
7832;BME280;3961;42.058;25.586;2023-01-15T04:33:02;62975.53;;;6.79;100.00
7832;BME280;3961;42.058;25.586;2023-01-15T04:35:27;62974.97;;;6.79;100.00
7832;BME280;3961;42.058;25.586;2023-01-15T04:37:54;62972.91;;;6.79;100.00
7832;BME280;3961;42.058;25.586;2023-01-15T04:40:20;62947.84;;;6.59;100.00
7832;BME280;3961;42.058;25.586;2023-01-15T04:43:04;62961.63;;;6.71;100.00
7832;BME280;3961;42.058;25.586;2023-01-15T04:45:48;62964.84;;;6.72;100.00
7832;BME280;3961;42.058;25.586;2023-01-15T04:48:13;62973.47;;;6.80;100.00
7832;BME280;3961;42.058;25.586;2023-01-15T04:50:39;62972.31;;;6.79;100.00
7832;BME280;3961;42.058;25.586;2023-01-15T04:53:04;62952.28;;;6.56;100.00
7832;BME280;3961;42.058;25.586;2023-01-15T04:55:30;62971.19;;;6.78;100.00
7832;BME280;3961;42.058;25.586;2023-01-15T04:57:56;62949.22;;;6.63;100.00
7832;BME280;3961;42.058;25.586;2023-01-15T05:00:22;62979.78;;;6.85;100.00
7832;BME280;3961;42.058;25.586;2023-01-15T05:02:48;62968.63;;;6.73;100.00
7832;BME280;3961;42.058;25.586;2023-01-15T05:05:14;62966.56;;;6.73;100.00
7832;BME280;3961;42.058;25.586;2023-01-15T05:07:40;62945.63;;;6.53;100.00
7832;BME280;3961;42.058;25.586;2023-01-15T05:10:06;62916.81;;;6.32;100.00
7832;BME280;3961;42.058;25.586;2023-01-15T05:12:31;62913.34;;;6.29;100.00
7832;BME280;3961;42.058;25.586;2023-01-15T05:14:57;62900.47;;;6.15;100.00
7832;BME280;3961;42.058;25.586;2023-01-15T05:17:22;62927.72;;;6.42;100.00
7832;BME280;3961;42.058;25.586;2023-01-15T05:19:48;62939.00;;;6.49;100.00
7832;BME280;3961;42.058;25.586;2023-01-15T05:22:13;62937.84;;;6.48;100.00
7832;BME280;3961;42.058;25.586;2023-01-15T05:24:39;62958.28;;;6.64;100.00
7832;BME280;3961;42.058;25.586;2023-01-15T05:27:04;62966.00;;;6.73;100.00
7832;BME280;3961;42.058;25.586;2023-01-15T05:29:30;62976.69;;;6.80;100.00
7832;BME280;3961;42.058;25.586;2023-01-15T05:31:56;62968.06;;;6.72;100.00
7832;BME280;3961;42.058;25.586;2023-01-15T05:34:21;62979.78;;;6.85;100.00
7832;BME280;3961;42.058;25.586;2023-01-15T05:36:47;62980.03;;;6.88;100.00
7832;BME280;3961;42.058;25.586;2023-01-15T05:39:13;62991.06;;;6.93;100.00
7832;BME280;3961;42.058;25.586;2023-01-15T05:41:38;62970.03;;;6.77;100.00
7832;BME280;3961;42.058;25.586;2023-01-15T05:44:19;62975.78;;;6.82;100.00
7832;BME280;3961;42.058;25.586;2023-01-15T05:46:46;62975.22;;;6.81;100.00
7832;BME280;3961;42.058;25.586;2023-01-15T05:49:18;62977.16;;;6.85;100.00
7832;BME280;3961;42.058;25.586;2023-01-15T05:51:44;62983.81;;;6.89;100.00
7832;BME280;3961;42.058;25.586;2023-01-15T05:54:12;62982.41;;;6.85;100.00
7832;BME280;3961;42.058;25.586;2023-01-15T05:56:38;62992.22;;;6.94;100.00
7832;BME280;3961;42.058;25.586;2023-01-15T05:59:05;62991.88;;;6.96;100.00
7832;BME280;3961;42.058;25.586;2023-01-15T06:01:31;62959.66;;;6.67;100.00
7832;BME280;3961;42.058;25.586;2023-01-15T06:04:01;62992.22;;;6.94;100.00
7832;BME280;3961;42.058;25.586;2023-01-15T06:06:28;62986.44;;;6.89;100.00
7832;BME280;3961;42.058;25.586;2023-01-15T06:08:54;63016.34;;;7.15;100.00
7832;BME280;3961;42.058;25.586;2023-01-15T06:11:20;63031.31;;;7.28;100.00
7832;BME280;3961;42.058;25.586;2023-01-15T06:13:46;62996.72;;;7.02;100.00
7832;BME280;3961;42.058;25.586;2023-01-15T06:16:11;62994.16;;;6.98;100.00
7832;BME280;3961;42.058;25.586;2023-01-15T06:18:37;62984.97;;;6.90;100.00
7832;BME280;3961;42.058;25.586;2023-01-15T06:21:05;62984.97;;;6.90;100.00
7832;BME280;3961;42.058;25.586;2023-01-15T06:23:31;62976.00;;;6.84;100.00
7832;BME280;3961;42.058;25.586;2023-01-15T06:26:21;62986.94;;;6.94;100.00
7832;BME280;3961;42.058;25.586;2023-01-15T06:28:46;62993.34;;;6.95;100.00
7832;BME280;3961;42.058;25.586;2023-01-15T06:31:16;63001.06;;;7.04;100.00
7832;BME280;3961;42.058;25.586;2023-01-15T06:33:42;63000.25;;;7.01;100.00
7832;BME280;3961;42.058;25.586;2023-01-15T06:36:10;62999.94;;;7.03;100.00
7832;BME280;3961;42.058;25.586;2023-01-15T06:38:36;63014.41;;;7.11;100.00
7832;BME280;3961;42.058;25.586;2023-01-15T06:41:04;63017.16;;;7.18;100.00
7832;BME280;3961;42.058;25.586;2023-01-15T06:43:50;63025.56;;;7.23;100.00
7832;BME280;3961;42.058;25.586;2023-01-15T06:46:34;63001.66;;;7.04;100.00
7832;BME280;3961;42.058;25.586;2023-01-15T06:49:18;63005.09;;;7.07;100.00
7832;BME280;3961;42.058;25.586;2023-01-15T06:51:43;62994.16;;;6.98;100.00
7832;BME280;3961;42.058;25.586;2023-01-15T06:54:09;62996.56;;;6.95;100.00
7832;BME280;3961;42.058;25.586;2023-01-15T06:56:34;62972.91;;;6.79;100.00
7832;BME280;3961;42.058;25.586;2023-01-15T06:59:00;62974.84;;;6.83;100.00
7832;BME280;3961;42.058;25.586;2023-01-15T07:01:25;62988.75;;;6.91;100.00
7832;BME280;3961;42.058;25.586;2023-01-15T07:03:55;62980.34;;;6.86;100.00
7832;BME280;3961;42.058;25.586;2023-01-15T07:06:21;62980.94;;;6.86;100.00
7832;BME280;3961;42.058;25.586;2023-01-15T07:08:46;62991.28;;;6.95;100.00
7832;BME280;3961;42.058;25.586;2023-01-15T07:11:12;62981.84;;;6.85;100.00
7832;BME280;3961;42.058;25.586;2023-01-15T07:13:38;62977.84;;;6.81;100.00
7832;BME280;3961;42.058;25.586;2023-01-15T07:16:04;62980.47;;;6.81;100.00
7832;BME280;3961;42.058;25.586;2023-01-15T07:18:32;62984.38;;;6.89;100.00
7832;BME280;3961;42.058;25.586;2023-01-15T07:20:58;62981.84;;;6.85;100.00
7832;BME280;3961;42.058;25.586;2023-01-15T07:23:25;62979.53;;;6.83;100.00
7832;BME280;3961;42.058;25.586;2023-01-15T07:25:51;62968.06;;;6.72;100.00
7832;BME280;3961;42.058;25.586;2023-01-15T07:28:19;62957.38;;;6.65;100.00
7832;BME280;3961;42.058;25.586;2023-01-15T07:30:45;62954.50;;;6.63;100.00
7832;BME280;3961;42.058;25.586;2023-01-15T07:33:10;62959.34;;;6.69;100.00
7832;BME280;3961;42.058;25.586;2023-01-15T07:35:37;62974.97;;;6.79;100.00
7832;BME280;3961;42.058;25.586;2023-01-15T07:38:02;62984.97;;;6.90;100.00
7832;BME280;3961;42.058;25.586;2023-01-15T07:40:28;62989.00;;;6.93;100.00
7832;BME280;3961;42.058;25.586;2023-01-15T07:42:53;62977.47;;;6.83;100.00
7832;BME280;3961;42.058;25.586;2023-01-15T07:45:38;62982.66;;;6.88;100.00
7832;BME280;3961;42.058;25.586;2023-01-15T07:48:22;62956.78;;;6.65;100.00
7832;BME280;3961;42.058;25.586;2023-01-15T07:51:08;62969.69;;;6.79;100.00
7832;BME280;3961;42.058;25.586;2023-01-15T07:53:33;62957.38;;;6.65;100.00
7832;BME280;3961;42.058;25.586;2023-01-15T07:55:59;62966.25;;;6.76;100.00
7832;BME280;3961;42.058;25.586;2023-01-15T07:58:24;62935.88;;;6.44;100.00
7832;BME280;3961;42.058;25.586;2023-01-15T08:00:50;62957.13;;;6.63;100.00
7832;BME280;3961;42.058;25.586;2023-01-15T08:03:15;62967.72;;;6.74;100.00
7832;BME280;3961;42.058;25.586;2023-01-15T08:05:41;62976.91;;;6.83;100.00
7832;BME280;3961;42.058;25.586;2023-01-15T08:08:14;62980.84;;;6.91;100.00
7832;BME280;3961;42.058;25.586;2023-01-15T08:10:39;62950.13;;;6.61;100.00
7832;BME280;3961;42.058;25.586;2023-01-15T08:13:25;62933.81;;;6.45;100.00
7832;BME280;3961;42.058;25.586;2023-01-15T08:16:08;62943.56;;;6.53;100.00
7832;BME280;3961;42.058;25.586;2023-01-15T08:18:36;62957.94;;;6.66;100.00
7832;BME280;3961;42.058;25.586;2023-01-15T08:21:01;62980.69;;;6.84;100.00
7832;BME280;3961;42.058;25.586;2023-01-15T08:23:27;62974.97;;;6.79;100.00
7832;BME280;3961;42.058;25.586;2023-01-15T08:25:52;62973.72;;;6.82;100.00
7832;BME280;3961;42.058;25.586;2023-01-15T08:28:18;62960.00;;;6.65;100.00
7832;BME280;3961;42.058;25.586;2023-01-15T08:30:43;62960.72;;;6.73;100.00
7832;BME280;3961;42.058;25.586;2023-01-15T08:33:09;62984.97;;;6.90;100.00
7832;BME280;3961;42.058;25.586;2023-01-15T08:35:34;62980.34;;;6.86;100.00
7832;BME280;3961;42.058;25.586;2023-01-15T08:38:06;62982.41;;;6.85;100.00
7832;BME280;3961;42.058;25.586;2023-01-15T08:40:33;62962.56;;;6.70;100.00
7832;BME280;3961;42.058;25.586;2023-01-15T08:43:01;62986.78;;;6.87;100.00
7832;BME280;3961;42.058;25.586;2023-01-15T08:45:26;62984.16;;;6.87;100.00
7832;BME280;3961;42.058;25.586;2023-01-15T08:47:55;62975.88;;;6.77;100.00
7832;BME280;3961;42.058;25.586;2023-01-15T08:50:24;62949.91;;;6.59;100.00
7832;BME280;3961;42.058;25.586;2023-01-15T08:52:50;62948.50;;;6.55;100.00
7832;BME280;3961;42.058;25.586;2023-01-15T08:55:15;62931.28;;;6.40;100.00
7832;BME280;3961;42.058;25.586;2023-01-15T08:57:41;62930.38;;;6.42;100.00
7832;BME280;3961;42.058;25.586;2023-01-15T09:00:09;62936.13;;;6.47;100.00
7832;BME280;3961;42.058;25.586;2023-01-15T09:02:34;62945.06;;;6.52;100.00
7832;BME280;3961;42.058;25.586;2023-01-15T09:05:00;62910.47;;;6.26;100.00
7832;BME280;3961;42.058;25.586;2023-01-15T09:07:26;62913.34;;;6.29;100.00
7832;BME280;3961;42.058;25.586;2023-01-15T09:09:51;62922.06;;;6.32;100.00
7832;BME280;3961;42.058;25.586;2023-01-15T09:12:17;62913.94;;;6.29;100.00
7832;BME280;3961;42.058;25.586;2023-01-15T09:14:42;62922.31;;;6.34;100.00
7832;BME280;3961;42.058;25.586;2023-01-15T09:17:08;62932.09;;;6.43;100.00
7832;BME280;3961;42.058;25.586;2023-01-15T09:19:33;62929.78;;;6.41;100.00
7832;BME280;3961;42.058;25.586;2023-01-15T09:21:58;62960.59;;;6.66;100.00
7832;BME280;3961;42.058;25.586;2023-01-15T09:24:24;62950.22;;;6.57;100.00
7832;BME280;3961;42.058;25.586;2023-01-15T09:26:49;62963.94;;;6.73;100.00
7832;BME280;3961;42.058;25.586;2023-01-15T09:29:17;62960.81;;;6.68;100.00
7832;BME280;3961;42.058;25.586;2023-01-15T09:31:43;62947.59;;;6.57;100.00
7832;BME280;3961;42.058;25.586;2023-01-15T09:34:08;62935.53;;;6.46;100.00
7832;BME280;3961;42.058;25.586;2023-01-15T09:36:34;62940.69;;;6.51;100.00
7832;BME280;3961;42.058;25.586;2023-01-15T09:39:01;62947.84;;;6.59;100.00
7832;BME280;3961;42.058;25.586;2023-01-15T09:41:50;62958.53;;;6.66;100.00
7832;BME280;3961;42.058;25.586;2023-01-15T09:55:51;62957.28;;;6.70;100.00
7832;BME280;3961;42.058;25.586;2023-01-15T09:58:23;62953.25;;;6.66;100.00
7832;BME280;3961;42.058;25.586;2023-01-15T10:00:51;62980.59;;;6.88;100.00
7832;BME280;3961;42.058;25.586;2023-01-15T10:03:22;62984.63;;;6.92;100.00
7832;BME280;3961;42.058;25.586;2023-01-15T10:06:14;63013.50;;;7.13;100.00
7832;BME280;3961;42.058;25.586;2023-01-15T10:08:45;63015.81;;;7.15;100.00
7832;BME280;3961;42.058;25.586;2023-01-15T10:14:00;63014.53;;;7.18;100.00
7832;BME280;3961;42.058;25.586;2023-01-15T10:16:31;63023.03;;;7.19;100.00
7832;BME280;3961;42.058;25.586;2023-01-15T10:19:00;63029.59;;;7.27;100.00
7832;BME280;3961;42.058;25.586;2023-01-15T10:21:49;63053.75;;;7.48;100.00
7832;BME280;3961;42.058;25.586;2023-01-15T10:26:52;63042.75;;;7.43;100.00
7832;BME280;3961;42.058;25.586;2023-01-15T10:29:32;63054.81;;;7.54;100.00
7832;BME280;3961;42.058;25.586;2023-01-15T10:37:55;63033.03;;;7.30;100.00
7832;BME280;3961;42.058;25.586;2023-01-15T10:40:29;63057.69;;;7.56;100.00
7832;BME280;3961;42.058;25.586;2023-01-15T10:45:44;63096.91;;;7.86;100.00
7832;BME280;3961;42.058;25.586;2023-01-15T10:50:47;63115.03;;;8.04;100.00
7832;BME280;3961;42.058;25.586;2023-01-15T10:55:51;63087.38;;;7.80;100.00
7832;BME280;3961;42.058;25.586;2023-01-15T11:00:57;63094.03;;;7.84;100.00
7832;BME280;3961;42.058;25.586;2023-01-15T11:03:45;63102.09;;;7.91;100.00
7832;BME280;3961;42.058;25.586;2023-01-15T11:06:14;63106.97;;;7.97;100.00
7832;BME280;3961;42.058;25.586;2023-01-15T11:08:43;63099.22;;;7.88;100.00
7832;BME280;3961;42.058;25.586;2023-01-15T11:14:11;63154.53;;;8.37;100.00
7832;BME280;3961;42.058;25.586;2023-01-15T11:16:55;63140.94;;;8.27;100.00
7832;BME280;3961;42.058;25.586;2023-01-15T11:19:34;63144.97;;;8.31;100.00
7832;BME280;3961;42.058;25.586;2023-01-15T11:22:11;63149.94;;;8.33;100.00
7832;BME280;3961;42.058;25.586;2023-01-15T11:24:53;63138.88;;;8.28;100.00
7832;BME280;3961;42.058;25.586;2023-01-15T11:27:22;63178.16;;;8.58;100.00
7832;BME280;3961;42.058;25.586;2023-01-15T11:29:58;63185.06;;;8.64;100.00
7832;BME280;3961;42.058;25.586;2023-01-15T11:32:31;63156.28;;;8.38;100.00
7832;BME280;3961;42.058;25.586;2023-01-15T11:35:01;63134.34;;;8.19;100.00
7832;BME280;3961;42.058;25.586;2023-01-15T11:37:28;63185.88;;;8.67;100.00
7832;BME280;3961;42.058;25.586;2023-01-15T11:39:58;63226.00;;;9.00;100.00
7832;BME280;3961;42.058;25.586;2023-01-15T11:42:35;63224.25;;;8.98;100.00
7832;BME280;3961;42.058;25.586;2023-01-15T11:45:20;63213.78;;;8.94;100.00
7832;BME280;3961;42.058;25.586;2023-01-15T11:51:09;63193.97;;;8.74;100.00
7832;BME280;3961;42.058;25.586;2023-01-15T11:53:47;63175.59;;;8.53;100.00
7832;BME280;3961;42.058;25.586;2023-01-15T11:56:19;63158.56;;;8.40;100.00
7832;BME280;3961;42.058;25.586;2023-01-15T11:58:48;63154.53;;;8.37;100.00
7832;BME280;3961;42.058;25.586;2023-01-15T12:03:57;63151.31;;;8.36;100.00
7832;BME280;3961;42.058;25.586;2023-01-15T12:06:24;63144.38;;;8.30;100.00
7832;BME280;3961;42.058;25.586;2023-01-15T12:11:38;63145.22;;;8.33;100.00
7832;BME280;3961;42.058;25.586;2023-01-15T12:20:14;63113.06;;;8.00;100.00
7832;BME280;3961;42.058;25.586;2023-01-15T12:23:11;63097.16;;;7.89;100.00
7832;BME280;3961;42.058;25.586;2023-01-15T12:25:58;63110.16;;;7.98;100.00
7832;BME280;3961;42.058;25.586;2023-01-15T12:28:41;63096.25;;;7.90;100.00
7832;BME280;3961;42.058;25.586;2023-01-15T12:31:42;63102.91;;;7.94;100.00
7832;BME280;3961;42.058;25.586;2023-01-15T12:37:05;63100.38;;;7.89;100.00
7832;BME280;3961;42.058;25.586;2023-01-15T12:40:01;63104.16;;;7.90;100.00
7832;BME280;3961;42.058;25.586;2023-01-15T12:42:29;63093.47;;;7.83;100.00
7832;BME280;3961;42.058;25.586;2023-01-15T12:45:17;63092.31;;;7.82;100.00
7832;BME280;3961;42.058;25.586;2023-01-15T12:50:34;63101.19;;;7.92;100.00
7832;BME280;3961;42.058;25.586;2023-01-15T12:53:18;63115.34;;;8.02;100.00
7832;BME280;3961;42.058;25.586;2023-01-15T13:03:48;63060.56;;;7.59;100.00
7832;BME280;3961;42.058;25.586;2023-01-15T13:06:16;63079.56;;;7.75;100.00
7832;BME280;3961;42.058;25.586;2023-01-15T13:08:59;63067.56;;;7.60;100.00
7832;BME280;3961;42.058;25.586;2023-01-15T13:11:26;63092.31;;;7.82;100.00
7832;BME280;3961;42.058;25.586;2023-01-15T13:13:52;63090.00;;;7.80;100.00
7832;BME280;3961;42.058;25.586;2023-01-15T13:16:41;63095.44;;;7.87;100.00
7832;BME280;3961;42.058;25.586;2023-01-15T13:21:48;63083.69;;;7.74;100.00
7832;BME280;3961;42.058;25.586;2023-01-15T13:32:02;63063.69;;;7.64;100.00
7832;BME280;3961;42.058;25.586;2023-01-15T13:34:47;63100.72;;;7.87;100.00
7832;BME280;3961;42.058;25.586;2023-01-15T13:39:49;63086.00;;;7.77;100.00
7832;BME280;3961;42.058;25.586;2023-01-15T13:42:22;63091.63;;;7.86;100.00
7832;BME280;3961;42.058;25.586;2023-01-15T13:47:31;63098.06;;;7.87;100.00
7832;BME280;3961;42.058;25.586;2023-01-15T13:50:00;63099.94;;;7.96;100.00
7832;BME280;3961;42.058;25.586;2023-01-15T13:52:35;63117.09;;;8.04;100.00
7832;BME280;3961;42.058;25.586;2023-01-15T13:55:15;63114.69;;;8.06;100.00
7832;BME280;3961;42.058;25.586;2023-01-15T13:57:43;63134.94;;;8.20;100.00
7832;BME280;3961;42.058;25.586;2023-01-15T14:02:55;63131.72;;;8.19;100.00
7832;BME280;3961;42.058;25.586;2023-01-15T14:07:52;63086.25;;;7.79;100.00
7832;BME280;3961;42.058;25.586;2023-01-15T14:15:33;63085.09;;;7.78;100.00
7832;BME280;3961;42.058;25.586;2023-01-15T14:23:52;63090.59;;;7.81;100.00
7832;BME280;3961;42.058;25.586;2023-01-15T14:26:58;63067.00;;;7.60;100.00
7832;BME280;3961;42.058;25.586;2023-01-15T14:35:02;63069.53;;;7.64;100.00
7832;BME280;3961;42.058;25.586;2023-01-15T14:37:39;63058.03;;;7.54;100.00
7832;BME280;3961;42.058;25.586;2023-01-15T14:40:17;63064.94;;;7.60;100.00
7832;BME280;3961;42.058;25.586;2023-01-15T14:42:48;63041.09;;;7.37;100.00
7832;BME280;3961;42.058;25.586;2023-01-15T14:46:04;63045.38;;;7.43;100.00
7832;BME280;3961;42.058;25.586;2023-01-15T14:50:52;63055.81;;;7.48;100.00
7832;BME280;3961;42.058;25.586;2023-01-15T14:53:23;63052.63;;;7.47;100.00
7832;BME280;3961;42.058;25.586;2023-01-15T14:58:30;63048.00;;;7.43;100.00
7832;BME280;3961;42.058;25.586;2023-01-15T15:06:50;63041.91;;;7.40;100.00
7832;BME280;3961;42.058;25.586;2023-01-15T15:09:45;63058.13;;;7.50;100.00
7832;BME280;3961;42.058;25.586;2023-01-15T15:15:22;63040.44;;;7.41;100.00
7832;BME280;3961;42.058;25.586;2023-01-15T15:20:26;63035.00;;;7.34;100.00
7832;BME280;3961;42.058;25.586;2023-01-15T15:23:00;63022.00;;;7.25;100.00
7832;BME280;3961;42.058;25.586;2023-01-15T15:25:31;63025.56;;;7.23;100.00
7832;BME280;3961;42.058;25.586;2023-01-15T15:28:07;63030.75;;;7.28;100.00
7832;BME280;3961;42.058;25.586;2023-01-15T15:30:35;63028.69;;;7.28;100.00
7832;BME280;3961;42.058;25.586;2023-01-15T15:33:05;63018.31;;;7.19;100.00
7832;BME280;3961;42.058;25.586;2023-01-15T15:35:32;63008.91;;;7.08;100.00
7832;BME280;3961;42.058;25.586;2023-01-15T15:38:03;62978.19;;;6.79;100.00
7832;BME280;3961;42.058;25.586;2023-01-15T15:40:36;63011.78;;;7.11;100.00
7832;BME280;3961;42.058;25.586;2023-01-15T15:43:24;62983.25;;;6.88;100.00
7832;BME280;3961;42.058;25.586;2023-01-15T15:46:47;63018.56;;;7.22;100.00
7832;BME280;3961;42.058;25.586;2023-01-15T15:49:40;63005.91;;;7.11;100.00
7832;BME280;3961;42.058;25.586;2023-01-15T15:52:19;62993.03;;;6.97;100.00